Time;durP1;ratioP1;P1;durP2;ratioP2;P2;SDS_P1;SDS_P2;PMS_P1;PMS_P2;Temp;Humidity;BMP_temperature;BMP_pressure;BME280_temperature;BME280_humidity;BME280_pressure;Samples;Min_cycle;Max_cycle;Signal;HPM_P1;HPM_P2
2023/03/01 00:00:46;;;;;;;8.55;6.35;;;17.70;52.10;;;;;;4996732;28;20223;-66
2023/03/01 00:03:35;;;;;;;10.02;7.25;;;17.90;52.10;;;;;;4996567;28;20206;-67
2023/03/01 00:06:24;;;;;;;9.90;6.97;;;17.90;50.60;;;;;;4995829;28;20219;-67
2023/03/01 00:09:13;;;;;;;9.27;6.82;;;18.00;64.20;;;;;;4995972;28;20243;-67
2023/03/01 00:12:01;;;;;;;8.52;6.32;;;17.90;50.20;;;;;;4996320;28;20251;-66
2023/03/01 00:14:49;;;;;;;9.35;6.45;;;17.80;50.20;;;;;;4994308;28;20251;-67
2023/03/01 00:17:38;;;;;;;10.10;7.07;;;17.80;50.40;;;;;;4995255;28;20286;-66
2023/03/01 00:20:26;;;;;;;7.47;6.40;;;17.80;50.30;;;;;;4994482;28;20290;-67
2023/03/01 00:23:14;;;;;;;7.30;6.38;;;17.70;50.50;;;;;;4996238;28;20203;-65
2023/03/01 00:26:06;;;;;;;9.63;6.90;;;17.70;50.60;;;;;;4995727;28;20255;-66
2023/03/01 00:28:55;;;;;;;8.52;7.28;;;17.60;50.50;;;;;;4996018;28;20211;-66
2023/03/01 00:31:43;;;;;;;8.82;7.18;;;17.60;50.70;;;;;;4997069;28;20203;-69
2023/03/01 00:34:31;;;;;;;7.50;6.43;;;17.60;50.70;;;;;;4994928;28;20211;-67
2023/03/01 00:37:19;;;;;;;8.15;6.80;;;17.50;50.60;;;;;;4996165;28;20326;-66
2023/03/01 00:40:10;;;;;;;9.75;7.05;;;17.50;50.70;;;;;;4994132;28;20277;-66
2023/03/01 00:42:59;;;;;;;8.10;6.35;;;17.50;50.60;;;;;;4995395;28;20203;-66
2023/03/01 00:45:47;;;;;;;8.20;6.57;;;17.40;50.80;;;;;;4993822;28;20226;-67
2023/03/01 00:48:36;;;;;;;7.13;6.13;;;17.40;51.10;;;;;;4995089;28;20204;-66
2023/03/01 00:51:26;;;;;;;10.60;6.65;;;17.30;51.10;;;;;;4996127;28;20318;-66
2023/03/01 00:54:14;;;;;;;8.05;6.75;;;17.50;51.20;;;;;;4994399;28;20231;-65
2023/03/01 00:57:03;;;;;;;6.78;5.90;;;17.30;50.70;;;;;;5002265;28;20686;-66
2023/03/01 00:59:52;;;;;;;7.53;6.32;;;17.40;51.60;;;;;;5015061;28;20218;-66
2023/03/01 01:02:40;;;;;;;7.70;6.00;;;17.30;52.50;;;;;;5015095;28;20575;-66
2023/03/01 01:05:29;;;;;;;8.50;6.68;;;17.40;52.50;;;;;;5014824;28;20305;-66
2023/03/01 01:08:17;;;;;;;11.65;6.75;;;17.50;52.20;;;;;;5014922;28;20198;-67
2023/03/01 01:11:05;;;;;;;8.07;6.60;;;17.60;52.10;;;;;;5015032;28;20264;-65
2023/03/01 01:13:53;;;;;;;8.55;6.97;;;17.70;50.90;;;;;;5014854;28;20206;-67
2023/03/01 01:16:43;;;;;;;8.00;6.80;;;17.80;50.40;;;;;;5013914;28;20293;-66
2023/03/01 01:19:32;;;;;;;8.65;6.75;;;17.80;50.10;;;;;;5013645;28;20722;-66
2023/03/01 01:22:20;;;;;;;6.85;5.90;;;17.70;50.20;;;;;;5013623;28;20662;-66
2023/03/01 01:25:09;;;;;;;7.03;5.97;;;17.70;50.20;;;;;;5013885;28;20207;-66
2023/03/01 01:27:57;;;;;;;7.28;6.57;;;17.70;50.20;;;;;;5013334;28;20230;-68
2023/03/01 01:30:45;;;;;;;6.65;5.95;;;17.60;50.10;;;;;;5013674;28;20222;-67
2023/03/01 01:33:37;;;;;;;7.25;6.55;;;17.50;50.70;;;;;;5014450;28;20207;-67
2023/03/01 01:36:25;;;;;;;6.82;5.38;;;17.40;50.40;;;;;;5013945;28;20194;-65
2023/03/01 01:39:13;;;;;;;6.63;4.78;;;17.30;64.60;;;;;;5013809;28;20218;-68
2023/03/01 01:42:02;;;;;;;7.93;6.05;;;17.40;50.70;;;;;;5012732;28;20278;-67
2023/03/01 01:45:26;;;;;;;8.05;6.45;;;17.30;50.70;;;;;;5014260;28;20242;-65
2023/03/01 01:48:18;;;;;;;9.13;6.68;;;17.30;50.90;;;;;;5014156;28;20205;-66
2023/03/01 01:51:10;;;;;;;7.72;6.88;;;17.20;50.70;;;;;;5015069;28;20214;-66
2023/03/01 01:54:01;;;;;;;8.40;5.72;;;17.20;50.60;;;;;;5017711;28;20210;-67
2023/03/01 01:56:55;;;;;;;7.30;6.15;;;17.20;51.20;;;;;;5012055;28;20246;-65
2023/03/01 01:59:48;;;;;;;7.13;6.30;;;17.10;50.90;;;;;;4998565;28;20650;-65
2023/03/01 02:02:38;;;;;;;6.95;5.97;;;17.10;50.80;;;;;;4999226;28;20203;-66
2023/03/01 02:05:33;;;;;;;8.48;6.00;;;17.20;51.60;;;;;;4997560;28;20210;-65
2023/03/01 02:08:27;;;;;;;6.38;5.30;;;17.30;52.30;;;;;;4999132;28;20627;-66
2023/03/01 02:11:15;;;;;;;6.40;5.38;;;17.40;52.80;;;;;;4998292;28;20235;-67
2023/03/01 02:14:03;;;;;;;8.30;5.78;;;17.50;52.00;;;;;;5000358;28;20251;-66
2023/03/01 02:16:52;;;;;;;7.75;6.15;;;17.60;51.60;;;;;;4996808;28;20555;-67
2023/03/01 02:19:51;;;;;;;8.85;5.95;;;17.70;51.10;;;;;;4997114;28;20274;-67
2023/03/01 02:22:39;;;;;;;7.60;6.70;;;17.70;50.60;;;;;;4998843;28;20261;-66
2023/03/01 02:25:35;;;;;;;7.40;6.20;;;17.70;50.40;;;;;;4996082;28;20207;-65
2023/03/01 02:28:33;;;;;;;6.63;5.95;;;17.70;50.10;;;;;;4997884;28;20231;-71
2023/03/01 02:34:28;;;;;;;6.00;5.32;;;17.50;50.30;;;;;;4996176;28;20207;-66
2023/03/01 02:37:24;;;;;;;6.78;6.07;;;17.50;50.40;;;;;;4997653;28;20206;-66
2023/03/01 02:40:17;;;;;;;9.52;6.50;;;17.40;50.70;;;;;;4997613;28;20246;-66
2023/03/01 02:43:09;;;;;;;8.15;6.53;;;17.30;50.50;;;;;;4993710;28;20244;-67
2023/03/01 02:46:06;;;;;;;10.65;6.43;;;17.30;50.40;;;;;;4996910;28;20286;-66
2023/03/01 02:48:56;;;;;;;7.00;5.88;;;17.30;50.50;;;;;;4997847;28;20209;-67
2023/03/01 02:51:55;;;;;;;8.32;5.47;;;17.20;50.70;;;;;;4997080;28;20208;-67
2023/03/01 02:54:49;;;;;;;6.65;5.97;;;17.10;50.60;;;;;;4997164;28;20229;-67
2023/03/01 02:57:40;;;;;;;6.50;5.80;;;17.10;50.90;;;;;;5010830;28;20225;-68
2023/03/01 03:00:35;;;;;;;6.80;5.40;;;17.10;50.80;;;;;;5016043;28;20223;-66
2023/03/01 03:03:25;;;;;;;7.47;6.32;;;17.10;50.70;;;;;;5013876;28;20198;-66
2023/03/01 03:06:14;;;;;;;10.32;6.80;;;17.00;50.80;;;;;;5015193;28;20226;-71
2023/03/01 03:09:02;;;;;;;7.03;6.15;;;17.00;50.70;;;;;;5016954;28;20354;-66
2023/03/01 03:11:50;;;;;;;8.65;6.65;;;17.10;52.30;;;;;;5017170;28;20711;-67
2023/03/01 03:14:38;;;;;;;9.25;7.05;;;17.30;52.70;;;;;;5016759;28;20207;-67
2023/03/01 03:17:27;;;;;;;6.50;5.70;;;17.50;53.00;;;;;;5016873;28;20195;-65
2023/03/01 03:20:18;;;;;;;6.45;5.65;;;17.50;52.70;;;;;;5015946;28;20655;-65
2023/03/01 03:23:07;;;;;;;7.40;5.97;;;17.60;52.00;;;;;;5015639;28;20201;-66
2023/03/01 03:25:55;;;;;;;8.95;6.78;;;17.70;51.40;;;;;;5015880;28;20676;-66
2023/03/01 03:28:43;;;;;;;8.50;6.15;;;17.70;50.80;;;;;;5016960;28;20285;-67
2023/03/01 03:31:31;;;;;;;9.85;6.18;;;17.80;50.30;;;;;;5015889;28;20301;-66
2023/03/01 03:34:19;;;;;;;8.30;6.72;;;17.80;50.00;;;;;;5016380;28;20198;-65
2023/03/01 03:38:01;;;;;;;8.35;6.68;;;17.80;50.20;;;;;;5016563;28;20230;-65
2023/03/01 03:40:17;;;;;;;7.20;6.13;;;17.70;49.90;;;;;;5016309;28;20324;-67
2023/03/01 03:43:07;;;;;;;8.10;6.28;;;17.70;50.60;;;;;;5015451;28;20285;-64
2023/03/01 03:45:56;;;;;;;8.45;6.60;;;19.20;51.20;;;;;;5014558;28;20291;-66
2023/03/01 03:48:46;;;;;;;7.43;6.30;;;17.50;50.00;;;;;;5014284;28;20766;-66
2023/03/01 03:51:34;;;;;;;7.10;5.97;;;17.50;50.20;;;;;;5014871;28;20277;-67
2023/03/01 03:54:23;;;;;;;9.38;6.43;;;17.40;50.50;;;;;;5014606;28;20337;-66
2023/03/01 03:57:11;;;;;;;7.50;6.15;;;17.40;50.20;;;;;;5005942;28;20227;-67
2023/03/01 03:59:59;;;;;;;6.80;5.43;;;17.30;50.20;;;;;;4994937;28;20292;-66
2023/03/01 04:02:48;;;;;;;10.18;6.00;;;17.20;50.70;;;;;;4994871;28;20200;-66
2023/03/01 04:05:37;;;;;;;6.90;6.10;;;17.20;50.40;;;;;;4994739;28;20211;-65
2023/03/01 04:08:26;;;;;;;9.98;6.15;;;17.10;50.40;;;;;;5012409;22;1175025;-62
2023/03/01 04:11:28;;;;;;;6.65;6.00;;;17.10;50.30;;;;;;5033619;28;20263;-62
2023/03/01 04:14:16;;;;;;;7.10;6.15;;;17.00;50.60;;;;;;5032698;28;20621;-62
2023/03/01 04:17:05;;;;;;;7.47;6.20;;;17.00;50.30;;;;;;5032501;28;20297;-67
2023/03/01 04:19:53;;;;;;;7.93;5.90;;;17.00;50.70;;;;;;5032666;28;20221;-62
2023/03/01 04:22:41;;;;;;;6.55;5.63;;;17.10;51.50;;;;;;5032846;28;20285;-62
2023/03/01 04:25:29;;;;;;;7.55;5.90;;;17.20;52.10;;;;;;5032415;28;20277;-62
2023/03/01 04:28:19;;;;;;;8.55;6.40;;;17.30;52.70;;;;;;5032765;28;20344;-62
2023/03/01 04:31:13;;;;;;;9.30;6.32;;;17.40;52.40;;;;;;5032861;28;20202;-62
2023/03/01 04:34:02;;;;;;;6.18;5.47;;;17.50;50.80;;;;;;5033316;28;20252;-62
2023/03/01 04:36:50;;;;;;;7.55;6.25;;;17.60;52.10;;;;;;5032690;28;20214;-62
2023/03/01 04:39:45;;;;;;;7.40;5.47;;;17.60;51.30;;;;;;5033039;28;20205;-62
2023/03/01 04:42:33;;;;;;;8.52;6.63;;;17.60;50.00;;;;;;5032414;28;20198;-62
2023/03/01 04:45:22;;;;;;;7.32;5.97;;;17.70;49.90;;;;;;5031928;28;20233;-62
2023/03/01 04:48:10;;;;;;;8.00;6.30;;;17.70;49.90;;;;;;5031796;28;20218;-62
2023/03/01 04:50:59;;;;;;;8.73;6.18;;;17.60;49.70;;;;;;5032284;28;20336;-62
2023/03/01 04:53:48;;;;;;;8.95;6.22;;;17.60;49.70;;;;;;5031719;28;20198;-62
2023/03/01 04:56:36;;;;;;;6.88;6.10;;;17.30;69.50;;;;;;5035851;28;20235;-62
2023/03/01 04:59:24;;;;;;;8.63;6.15;;;17.50;50.00;;;;;;5053211;28;20214;-62
2023/03/01 05:02:13;;;;;;;7.07;5.97;;;17.40;49.90;;;;;;5051322;28;20266;-62
2023/03/01 05:05:01;;;;;;;7.22;6.35;;;17.30;49.80;;;;;;5052742;28;20796;-62
2023/03/01 05:07:50;;;;;;;6.22;5.20;;;17.30;49.90;;;;;;5052892;28;20366;-62
2023/03/01 05:10:38;;;;;;;6.38;5.72;;;17.30;50.20;;;;;;5053053;28;20259;-62
2023/03/01 05:13:28;;;;;;;6.00;5.00;;;17.20;50.20;;;;;;5052774;28;20209;-62
2023/03/01 05:16:16;;;;;;;9.23;6.43;;;17.10;50.40;;;;;;5053007;28;20279;-63
2023/03/01 05:19:11;;;;;;;7.43;6.20;;;17.10;50.40;;;;;;5052770;28;20197;-62
2023/03/01 05:22:03;;;;;;;8.13;5.75;;;17.00;50.30;;;;;;5051724;28;20286;-62
2023/03/01 05:24:53;;;;;;;6.72;5.85;;;17.00;50.50;;;;;;5051014;28;20208;-62
2023/03/01 05:27:41;;;;;;;7.53;6.57;;;17.00;50.20;;;;;;5056343;28;20228;-63
2023/03/01 05:30:30;;;;;;;6.20;5.57;;;17.00;50.30;;;;;;5055729;28;20228;-62
2023/03/01 05:33:18;;;;;;;7.75;6.00;;;17.00;51.90;;;;;;5057212;28;20413;-62
2023/03/01 05:36:09;;;;;;;8.02;6.78;;;17.10;52.00;;;;;;5055230;28;20282;-62
2023/03/01 05:38:57;;;;;;;8.35;6.63;;;17.30;52.30;;;;;;5056639;28;20688;-62
2023/03/01 05:41:45;;;;;;;9.82;6.75;;;17.40;52.10;;;;;;5056570;28;20280;-62
2023/03/01 05:44:34;;;;;;;7.95;6.70;;;17.40;51.80;;;;;;5055234;28;20776;-62
2023/03/01 05:47:22;;;;;;;7.15;6.45;;;17.60;51.60;;;;;;5056665;28;20690;-62
2023/03/01 05:50:12;;;;;;;8.00;6.78;;;17.60;50.50;;;;;;5056764;28;20251;-62
2023/03/01 05:53:05;;;;;;;8.18;6.80;;;17.70;49.80;;;;;;5056455;28;20349;-62
2023/03/01 05:55:53;;;;;;;8.10;6.47;;;17.70;49.70;;;;;;5055811;28;20194;-62
2023/03/01 05:58:41;;;;;;;7.70;6.38;;;17.60;49.80;;;;;;5046053;28;20241;-62
2023/03/01 06:01:29;;;;;;;7.15;6.25;;;17.60;49.50;;;;;;5036094;28;20264;-62
2023/03/01 06:04:17;;;;;;;8.00;6.63;;;17.50;49.40;;;;;;5035207;28;20230;-62
2023/03/01 06:07:06;;;;;;;9.32;6.90;;;17.40;49.70;;;;;;5035921;28;20226;-62
2023/03/01 06:09:55;;;;;;;7.18;6.43;;;17.40;50.00;;;;;;5035665;28;20255;-62
2023/03/01 06:12:44;;;;;;;7.88;6.38;;;17.30;49.90;;;;;;5035147;28;20248;-62
2023/03/01 06:15:32;;;;;;;8.23;7.18;;;17.30;49.70;;;;;;5034751;28;20297;-62
2023/03/01 06:18:20;;;;;;;8.40;7.05;;;17.20;50.00;;;;;;5034615;28;20226;-62
2023/03/01 06:21:09;;;;;;;7.93;6.90;;;17.20;50.00;;;;;;5035754;28;20247;-62
2023/03/01 06:23:57;;;;;;;7.85;6.28;;;17.10;50.00;;;;;;5035225;28;20733;-62
2023/03/01 06:26:46;;;;;;;7.43;6.72;;;17.10;50.00;;;;;;5035027;28;20311;-62
2023/03/01 06:29:35;;;;;;;8.70;7.68;;;17.00;50.00;;;;;;5035155;28;20228;-62
2023/03/01 06:32:23;;;;;;;8.45;6.63;;;17.00;50.10;;;;;;5034324;28;20658;-62
2023/03/01 06:35:13;;;;;;;8.40;6.85;;;17.00;50.60;;;;;;5034027;28;20216;-62
2023/03/01 06:38:03;;;;;;;8.30;7.43;;;16.90;50.00;;;;;;5032218;28;20305;-62
2023/03/01 06:40:53;;;;;;;9.52;7.35;;;16.90;50.60;;;;;;5028349;28;20198;-62
2023/03/01 06:43:43;;;;;;;8.32;6.80;;;17.00;51.50;;;;;;5035124;28;20206;-63
2023/03/01 06:46:31;;;;;;;7.72;6.93;;;17.40;71.60;;;;;;5033742;28;20280;-62
2023/03/01 06:49:20;;;;;;;8.48;6.75;;;17.30;52.40;;;;;;5032493;28;20237;-62
2023/03/01 06:52:08;;;;;;;9.00;7.82;;;17.50;52.30;;;;;;5035751;28;20687;-62
2023/03/01 06:54:57;;;;;;;15.77;9.82;;;17.50;51.40;;;;;;5014812;28;20191;-62
2023/03/01 06:57:45;;;;;;;12.07;8.02;;;17.60;51.60;;;;;;5030621;28;20709;-62
2023/03/01 07:00:34;;;;;;;10.93;9.15;;;17.70;51.10;;;;;;5034426;28;20286;-62
2023/03/01 07:03:23;;;;;;;13.38;9.25;;;17.80;50.60;;;;;;5034061;28;20556;-62
2023/03/01 07:06:11;;;;;;;10.43;8.32;;;17.80;49.70;;;;;;5034679;28;20203;-63
2023/03/01 07:08:59;;;;;;;11.75;9.07;;;17.90;50.30;;;;;;5042812;28;20244;-63
2023/03/01 07:11:48;;;;;;;8.02;7.13;;;18.00;50.70;;;;;;5033765;28;20643;-62
2023/03/01 07:14:36;;;;;;;10.07;7.85;;;17.70;49.80;;;;;;5029485;28;20336;-62
2023/03/01 07:17:26;;;;;;;9.05;7.90;;;17.70;52.50;;;;;;5034464;28;20245;-62
2023/03/01 07:20:14;;;;;;;10.45;8.15;;;17.90;52.70;;;;;;5029891;28;20277;-62
2023/03/01 07:23:02;;;;;;;10.90;7.60;;;18.30;52.80;;;;;;5032864;28;20296;-62
2023/03/01 07:25:53;;;;;;;11.40;8.32;;;18.30;52.50;;;;;;5032627;28;20260;-62
2023/03/01 07:28:41;;;;;;;10.98;7.50;;;18.50;52.30;;;;;;5034029;28;20352;-62
2023/03/01 07:31:30;;;;;;;9.30;7.70;;;18.70;52.20;;;;;;5038525;28;20251;-62
2023/03/01 07:34:19;;;;;;;8.00;7.25;;;18.60;51.70;;;;;;5033374;28;20233;-62
2023/03/01 07:37:07;;;;;;;11.90;7.30;;;19.00;51.90;;;;;;5028940;28;20252;-62
2023/03/01 07:39:55;;;;;;;10.35;7.22;;;19.00;51.70;;;;;;5032045;28;20205;-62
2023/03/01 07:42:43;;;;;;;8.48;7.35;;;18.90;51.40;;;;;;5033417;28;20217;-62
2023/03/01 07:45:31;;;;;;;8.07;6.15;;;19.10;51.40;;;;;;5034492;28;20288;-62
2023/03/01 07:48:19;;;;;;;7.25;6.53;;;19.10;51.30;;;;;;5021942;28;20222;-62
2023/03/01 07:51:10;;;;;;;7.05;6.22;;;19.70;51.80;;;;;;5026144;28;20279;-62
2023/03/01 07:53:58;;;;;;;7.47;6.13;;;19.40;51.50;;;;;;5032903;28;20247;-62
2023/03/01 07:56:46;;;;;;;11.02;7.35;;;19.50;51.50;;;;;;5034055;28;20225;-62
2023/03/01 07:59:34;;;;;;;7.85;7.03;;;19.50;51.40;;;;;;5038098;28;20210;-62
2023/03/01 08:02:23;;;;;;;9.30;7.10;;;19.60;51.40;;;;;;5049294;28;20303;-62
2023/03/01 08:05:12;;;;;;;8.40;6.93;;;19.80;51.40;;;;;;5041691;28;20681;-62
2023/03/01 08:08:01;;;;;;;7.78;6.20;;;19.80;51.20;;;;;;5037127;28;20340;-62
2023/03/01 08:10:49;;;;;;;7.68;6.55;;;19.90;51.20;;;;;;5025938;28;20223;-62
2023/03/01 08:13:37;;;;;;;7.85;7.10;;;20.10;51.30;;;;;;5051757;28;20306;-62
2023/03/01 08:16:26;;;;;;;7.72;6.82;;;20.20;63.80;;;;;;5051746;28;20206;-62
2023/03/01 08:19:14;;;;;;;7.97;7.03;;;20.10;50.90;;;;;;5051030;28;20201;-62
2023/03/01 08:22:02;;;;;;;8.23;7.38;;;20.20;50.90;;;;;;5052066;28;20200;-62
2023/03/01 08:24:52;;;;;;;8.13;7.32;;;20.20;50.80;;;;;;5051033;28;20201;-62
2023/03/01 08:27:40;;;;;;;7.88;6.32;;;20.30;51.10;;;;;;5052510;28;20279;-62
2023/03/01 08:30:28;;;;;;;9.55;6.72;;;20.20;51.00;;;;;;5052720;28;20342;-62
2023/03/01 08:33:16;;;;;;;9.00;7.32;;;20.00;50.80;;;;;;5051609;28;20197;-62
2023/03/01 08:36:06;;;;;;;9.45;7.07;;;20.10;51.00;;;;;;5050583;28;20280;-62
2023/03/01 08:38:55;;;;;;;11.10;6.20;;;20.40;51.30;;;;;;5051632;28;20197;-62
2023/03/01 08:41:46;;;;;;;8.30;6.65;;;20.40;51.10;;;;;;5051858;28;20208;-62
2023/03/01 08:44:35;;;;;;;7.20;6.50;;;20.50;51.10;;;;;;5051259;28;20666;-62
2023/03/01 08:47:23;;;;;;;6.88;6.22;;;20.70;51.50;;;;;;5051462;28;20217;-62
2023/03/01 08:50:12;;;;;;;8.10;6.05;;;20.60;51.10;;;;;;5022873;28;20335;-62
2023/03/01 08:53:00;;;;;;;7.40;6.60;;;20.70;51.40;;;;;;5032719;28;20198;-62
2023/03/01 08:55:48;;;;;;;7.85;6.40;;;20.40;51.20;;;;;;5012683;28;20753;-63
2023/03/01 08:58:39;;;;;;;5.97;5.47;;;20.70;51.40;;;;;;5032712;28;20710;-62
2023/03/01 09:01:27;;;;;;;7.10;6.03;;;20.80;51.50;;;;;;5032673;28;20233;-62
2023/03/01 09:04:16;;;;;;;7.07;6.38;;;20.80;51.50;;;;;;5031736;28;20209;-62
2023/03/01 09:07:04;;;;;;;6.10;5.57;;;21.10;51.60;;;;;;5032523;28;20256;-62
2023/03/01 09:09:53;;;;;;;6.28;5.32;;;21.00;51.40;;;;;;5031907;28;20699;-62
2023/03/01 09:12:42;;;;;;;7.00;5.55;;;21.10;51.30;;;;;;5023560;28;20214;-62
2023/03/01 09:15:32;;;;;;;6.88;5.07;;;20.80;51.00;;;;;;5013913;28;20702;-62
2023/03/01 09:18:20;;;;;;;7.75;5.47;;;21.10;51.20;;;;;;5032632;28;20257;-61
2023/03/01 09:21:10;;;;;;;5.43;4.93;;;21.20;51.30;;;;;;5031481;28;20201;-62
2023/03/01 09:23:59;;;;;;;5.05;4.55;;;21.20;51.30;;;;;;5033637;28;20214;-62
2023/03/01 09:26:48;;;;;;;6.13;5.15;;;21.30;51.40;;;;;;5024897;28;20214;-61
2023/03/01 09:29:38;;;;;;;5.38;4.88;;;21.10;51.00;;;;;;5044561;28;20223;-62
2023/03/01 09:32:27;;;;;;;6.35;4.95;;;21.30;51.10;;;;;;5051028;28;20780;-62
2023/03/01 09:35:16;;;;;;;6.10;5.22;;;21.50;51.30;;;;;;5029756;28;20678;-62
2023/03/01 09:38:04;;;;;;;6.63;5.35;;;21.30;51.20;;;;;;5040816;28;20686;-61
2023/03/01 09:40:52;;;;;;;7.05;5.15;;;21.30;51.20;;;;;;5030724;28;20206;-62
2023/03/01 09:43:45;;;;;;;5.50;4.95;;;21.30;51.10;;;;;;5036488;28;20197;-62
2023/03/01 09:46:42;;;;;;;5.38;4.82;;;21.40;68.30;;;;;;5053013;28;20299;-62
2023/03/01 09:49:34;;;;;;;6.85;4.95;;;21.30;51.20;;;;;;5052166;28;20298;-62
2023/03/01 09:52:29;;;;;;;5.28;4.78;;;21.20;51.00;;;;;;5051527;28;20625;-62
2023/03/01 09:55:26;;;;;;;8.10;5.10;;;21.20;51.30;;;;;;5048664;28;20209;-62
2023/03/01 09:58:39;;;;;;;6.10;4.85;;;21.20;51.30;;;;;;5047265;28;20283;-62
2023/03/01 10:01:34;;;;;;;6.00;4.70;;;21.20;51.20;;;;;;5031725;28;20596;-62
2023/03/01 10:04:37;;;;;;;5.97;4.45;;;21.20;51.20;;;;;;5031791;28;20628;-61
2023/03/01 10:07:38;;;;;;;8.38;4.70;;;21.30;51.30;;;;;;5031383;28;20710;-62
2023/03/01 10:10:32;;;;;;;4.95;4.35;;;21.40;51.30;;;;;;5059050;22;20252;-61
2023/03/01 10:13:24;;;;;;;5.60;4.65;;;21.40;51.20;;;;;;5046302;28;20281;-61
2023/03/01 10:16:16;;;;;;;5.35;4.20;;;21.40;51.10;;;;;;5046915;28;20206;-61
2023/03/01 10:19:06;;;;;;;5.95;3.90;;;21.50;51.60;;;;;;5048219;28;20618;-60
2023/03/01 10:22:01;;;;;;;5.97;4.63;;;21.40;50.70;;;;;;5046104;28;20322;-60
2023/03/01 10:24:50;;;;;;;8.23;4.18;;;21.40;50.70;;;;;;5053836;28;20247;-60
2023/03/01 10:27:50;;;;;;;3.95;3.55;;;21.40;50.70;;;;;;5053738;28;20201;-60
2023/03/01 10:30:41;;;;;;;4.75;3.88;;;21.50;50.80;;;;;;5054613;28;20225;-63
2023/03/01 10:33:33;;;;;;;5.13;4.00;;;21.50;50.90;;;;;;5053584;28;20201;-61
2023/03/01 10:36:21;;;;;;;4.47;3.83;;;21.50;51.00;;;;;;5053261;28;20208;-61
2023/03/01 10:39:17;;;;;;;5.22;4.13;;;21.50;51.00;;;;;;5053638;28;20198;-61
2023/03/01 10:42:19;;;;;;;4.28;3.85;;;21.50;50.80;;;;;;5053498;28;20216;-61
2023/03/01 10:45:28;;;;;;;5.70;3.92;;;21.50;50.90;;;;;;5053375;28;20208;-61
2023/03/01 10:48:19;;;;;;;4.10;3.70;;;21.50;50.90;;;;;;5052955;28;20626;-61
2023/03/01 10:51:08;;;;;;;5.45;4.38;;;21.50;51.00;;;;;;5055629;28;20225;-61
2023/03/01 10:53:56;;;;;;;4.90;4.38;;;21.50;50.80;;;;;;5054030;28;20197;-63
2023/03/01 10:56:52;;;;;;;4.53;3.90;;;21.30;50.70;;;;;;5046636;28;20230;-61
2023/03/01 10:59:40;;;;;;;3.58;3.22;;;21.40;50.90;;;;;;5044201;28;20557;-61
2023/03/01 11:02:32;;;;;;;4.00;3.67;;;21.60;51.10;;;;;;5053407;28;20208;-61
2023/03/01 11:05:24;;;;;;;5.32;4.05;;;21.60;51.00;;;;;;5052657;28;20216;-61
2023/03/01 11:08:12;;;;;;;4.03;3.40;;;21.60;51.00;;;;;;5034671;28;20209;-61
2023/03/01 11:11:17;;;;;;;3.70;2.85;;;21.60;50.90;;;;;;5039609;28;20267;-61
2023/03/01 11:14:13;;;;;;;5.70;3.65;;;21.70;51.10;;;;;;5050460;28;20217;-61
2023/03/01 11:17:17;;;;;;;4.05;3.58;;;21.70;51.20;;;;;;5032428;28;20288;-63
2023/03/01 11:20:26;;;;;;;5.28;3.78;;;21.60;68.20;;;;;;5033329;28;20340;-62
2023/03/01 11:23:16;;;;;;;4.15;3.75;;;21.70;51.30;;;;;;5033267;28;20213;-64
2023/03/01 11:26:08;;;;;;;3.90;3.60;;;21.80;51.30;;;;;;5033318;28;20202;-62
2023/03/01 11:29:04;;;;;;;3.42;3.13;;;22.00;51.50;;;;;;5033144;28;20202;-63
2023/03/01 11:31:55;;;;;;;5.30;3.20;;;21.80;51.50;;;;;;5032696;28;20352;-63
2023/03/01 11:34:51;;;;;;;4.13;3.83;;;21.80;51.40;;;;;;5032567;28;20277;-63
2023/03/01 11:37:45;;;;;;;3.50;3.03;;;21.80;51.30;;;;;;5033645;28;20198;-62
2023/03/01 11:40:38;;;;;;;3.85;3.50;;;21.90;51.40;;;;;;5032717;28;20229;-62
2023/03/01 11:43:36;;;;;;;5.13;3.47;;;21.70;51.30;;;;;;5032586;28;20229;-62
2023/03/01 11:46:59;;;;;;;5.30;3.13;;;21.70;51.20;;;;;;5032852;28;20308;-62
2023/03/01 11:50:23;;;;;;;4.40;3.08;;;21.70;51.40;;;;;;5032963;28;20202;-63
2023/03/01 11:53:27;;;;;;;3.67;2.95;;;21.70;51.40;;;;;;5028991;28;20244;-62
2023/03/01 11:56:27;;;;;;;5.78;3.35;;;21.60;51.30;;;;;;5049073;28;20249;-62
2023/03/01 11:59:39;;;;;;;3.00;2.70;;;21.70;51.30;;;;;;5035120;28;20295;-62
2023/03/01 12:02:54;;;;;;;3.60;3.25;;;21.70;51.00;;;;;;5016907;28;20213;-63
2023/03/01 12:06:23;;;;;;;2.78;2.50;;;21.70;51.30;;;;;;5051244;28;20283;-61
2023/03/01 12:09:31;;;;;;;2.75;2.53;;;21.60;51.10;;;;;;5052775;28;20200;-62
2023/03/01 12:12:36;;;;;;;2.80;2.60;;;21.60;51.10;;;;;;5050987;28;20228;-62
2023/03/01 12:15:44;;;;;;;6.47;3.03;;;21.60;51.10;;;;;;5049241;28;20205;-62
2023/03/01 12:19:05;;;;;;;3.30;3.00;;;21.60;51.30;;;;;;5044300;28;20837;-62
2023/03/01 12:22:07;;;;;;;2.80;2.53;;;21.60;51.20;;;;;;5033176;28;20246;-62
2023/03/01 12:25:12;;;;;;;3.92;2.75;;;21.60;51.40;;;;;;5043869;28;20209;-61
2023/03/01 12:28:20;;;;;;;2.65;2.35;;;21.60;51.20;;;;;;5032706;28;20201;-61
2023/03/01 12:31:33;;;;;;;2.88;2.58;;;21.60;51.30;;;;;;5031542;28;20308;-62
2023/03/01 12:34:53;;;;;;;3.67;2.90;;;21.70;51.40;;;;;;5033447;28;20200;-61
2023/03/01 12:37:52;;;;;;;2.53;2.33;;;21.80;51.30;;;;;;5047275;28;20202;-62
2023/03/01 12:40:55;;;;;;;2.80;2.60;;;21.90;51.30;;;;;;5051462;28;20213;-61
2023/03/01 12:43:55;;;;;;;2.65;2.45;;;21.90;51.20;;;;;;5052678;28;20201;-62
2023/03/01 12:46:58;;;;;;;2.78;2.58;;;22.00;51.30;;;;;;5052426;28;20209;-61
2023/03/01 12:49:58;;;;;;;3.05;2.35;;;22.00;51.20;;;;;;5071300;28;20266;-63
2023/03/01 12:52:52;;;;;;;2.63;2.33;;;22.00;51.10;;;;;;5073077;28;20251;-62
2023/03/01 12:55:43;;;;;;;3.75;2.50;;;22.10;51.10;;;;;;5073019;28;20225;-62
2023/03/01 12:58:35;;;;;;;4.45;2.75;;;22.10;51.10;;;;;;5052300;28;20194;-62
2023/03/01 13:01:45;;;;;;;2.60;2.40;;;22.10;51.00;;;;;;5030734;28;20372;-62
2023/03/01 13:04:44;;;;;;;2.88;2.50;;;22.10;51.00;;;;;;5045481;28;20252;-62
2023/03/01 13:07:40;;;;;;;5.93;2.17;;;22.10;51.00;;;;;;5051140;28;20276;-62
2023/03/01 13:10:35;;;;;;;3.83;2.65;;;22.10;50.90;;;;;;5051867;28;20246;-62
2023/03/01 13:13:25;;;;;;;3.10;2.83;;;22.00;51.50;;;;;;5050652;28;20198;-62
2023/03/01 13:16:39;;;;;;;4.10;2.20;;;22.00;50.80;;;;;;5051135;28;20626;-62
2023/03/01 13:19:29;;;;;;;4.00;2.60;;;21.90;50.70;;;;;;5053046;28;20205;-62
2023/03/01 13:22:31;;;;;;;2.85;2.40;;;21.90;50.70;;;;;;5061337;28;20262;-62
2023/03/01 13:25:21;;;;;;;2.75;2.45;;;21.90;50.80;;;;;;5050452;28;20704;-62
2023/03/01 13:28:38;;;;;;;3.80;2.63;;;21.90;50.90;;;;;;5053141;28;20689;-62
2023/03/01 13:32:03;;;;;;;3.83;1.90;;;21.80;50.90;;;;;;5051114;28;20228;-62
2023/03/01 13:35:00;;;;;;;2.92;2.63;;;21.90;51.00;;;;;;5050897;28;20200;-62
2023/03/01 13:37:48;;;;;;;2.42;2.22;;;21.90;51.00;;;;;;5034480;28;20198;-62
2023/03/01 13:41:00;;;;;;;3.55;2.42;;;21.80;50.80;;;;;;5051549;28;20224;-62
2023/03/01 13:43:49;;;;;;;2.25;1.80;;;21.80;50.70;;;;;;5035475;28;20275;-62
2023/03/01 13:46:37;;;;;;;2.70;2.50;;;21.80;50.80;;;;;;5051595;28;20335;-62
2023/03/01 13:49:29;;;;;;;2.28;2.08;;;21.80;50.80;;;;;;5054303;28;20211;-62
2023/03/01 13:52:41;;;;;;;4.05;2.58;;;21.80;50.80;;;;;;5053733;28;20217;-62
2023/03/01 13:55:38;;;;;;;3.20;2.28;;;21.80;50.80;;;;;;5054961;28;20682;-62
2023/03/01 13:58:30;;;;;;;2.55;2.35;;;21.80;50.70;;;;;;5047917;28;20280;-62
2023/03/01 14:01:24;;;;;;;2.42;2.22;;;21.90;50.80;;;;;;5056039;28;20231;-62
2023/03/01 14:04:22;;;;;;;2.58;2.30;;;21.90;50.80;;;;;;5042010;28;20208;-62
2023/03/01 14:07:12;;;;;;;2.03;1.92;;;21.90;50.80;;;;;;5036384;28;20710;-62
2023/03/01 14:10:04;;;;;;;2.13;2.03;;;21.80;67.10;;;;;;5039187;28;20198;-62
2023/03/01 14:12:56;;;;;;;3.20;2.10;;;21.90;50.70;;;;;;5053953;28;20220;-62
2023/03/01 14:16:05;;;;;;;2.60;2.08;;;22.00;50.70;;;;;;5044382;28;20212;-62
2023/03/01 14:19:02;;;;;;;2.95;2.20;;;22.00;50.60;;;;;;5046403;28;20201;-62
2023/03/01 14:22:00;;;;;;;2.25;1.60;;;22.10;50.10;;;;;;5054349;28;20260;-62
2023/03/01 14:24:53;;;;;;;2.38;2.03;;;22.10;50.50;;;;;;5053785;28;20326;-62
2023/03/01 14:27:42;;;;;;;2.53;2.20;;;22.20;50.60;;;;;;5038203;28;20210;-62
2023/03/01 14:30:34;;;;;;;2.63;2.00;;;22.10;50.50;;;;;;5054851;28;20228;-62
2023/03/01 14:33:27;;;;;;;2.30;1.83;;;22.20;50.40;;;;;;5050031;28;20266;-62
2023/03/01 14:36:15;;;;;;;2.25;2.05;;;22.20;50.30;;;;;;5034840;28;20238;-62
2023/03/01 14:39:17;;;;;;;2.67;2.20;;;22.20;50.10;;;;;;5046796;28;20684;-62
2023/03/01 14:42:06;;;;;;;2.35;2.15;;;22.20;50.10;;;;;;5047843;28;20290;-62
2023/03/01 14:45:05;;;;;;;3.70;2.15;;;22.30;50.10;;;;;;5053016;28;20204;-62
2023/03/01 14:47:54;;;;;;;2.47;1.98;;;22.30;50.20;;;;;;5037013;28;20636;-62
2023/03/01 14:50:45;;;;;;;2.42;1.90;;;22.30;50.10;;;;;;5053118;28;20303;-62
2023/03/01 14:53:33;;;;;;;2.95;2.22;;;22.30;50.20;;;;;;5052565;28;20234;-62
2023/03/01 14:56:45;;;;;;;2.30;2.08;;;21.30;49.30;;;;;;5043636;28;20197;-62
2023/03/01 14:59:35;;;;;;;2.30;1.70;;;22.30;50.20;;;;;;5039303;28;20204;-62